Flight Track Log - Related Links

Times and Time Zones

All times are in EDT time to prevent confusion due to time zone crossing. See the GJS3707 flight status page for this flight to view local times or setup timezone preferences in your user account.


Time Position Orientation Groundspeed Altitude Reporting Facility
EDT Latitude Longitude Course Direction KTS MPH feet Rate Location/Type
Sun 03:07:53 PM 43.5842 -116.2892 81° East 197 227 4,300  Level Salt Lake Center
Sun 03:08:55 PM 43.6342 -116.3469 320° Northwest 255 293 6,000 1,790 Climbing Salt Lake Center
Sun 03:09:57 PM 43.6964 -116.3053 26° Northeast 271 312 8,000 1,935 Climbing Salt Lake Center
Sun 03:10:00 PM 43.6510 -115.5469 65° Northeast  Level FlightAware Approximate
Sun 03:10:59 PM 43.7169 -116.1858 77° East 288 331 10,000  Level Salt Lake Center
Sun 03:11:00 PM 43.6727 -115.3795 81° East  Level FlightAware Approximate
Sun 03:12:00 PM 43.7023 -115.2132 81° East  Level FlightAware Approximate
Sun 03:12:01 PM 43.7325 -116.0686 80° East 321 369 10,900  Level Salt Lake Center
Sun 03:13:00 PM 43.7213 -115.0427 81° East  Level FlightAware Approximate
Sun 03:13:03 PM 43.7489 -115.9108 82° East 368 423 12,500  Level Salt Lake Center
Sun 03:14:05 PM 43.7656 -115.7719 81° East 379 436 13,900 1,548 Climbing Salt Lake Center
Sun 03:15:07 PM 43.7775 -115.6025 84° East 395 455 15,700 1,597 Climbing Salt Lake Center
Sun 03:16:09 PM 43.7897 -115.4533 83° East 407 468 17,200 1,500 Climbing Salt Lake Center
Sun 03:17:11 PM 43.8000 -115.3008 85° East 416 479 18,800 1,694 Climbing Salt Lake Center
Sun 03:18:13 PM 43.7836 -115.1233 97° East 417 480 20,700 1,645 Climbing Salt Lake Center
Sun 03:19:15 PM 43.7703 -114.9700 97° East 421 484 22,200 1,452 Climbing Salt Lake Center
Sun 03:20:17 PM 43.7786 -114.7872 86° East 430 495 23,700 1,161 Climbing Salt Lake Center
Sun 03:21:19 PM 43.7908 -114.6250 84° East 444 511 24,600 1,016 Climbing Salt Lake Center
Sun 03:22:21 PM 43.8053 -114.4292 84° East 457 526 25,800 1,065 Climbing Salt Lake Center
Sun 03:23:23 PM 43.8167 -114.2578 85° East 467 537 26,800 1,113 Climbing Salt Lake Center
Sun 03:24:25 PM 43.8294 -114.0575 85° East 468 539 28,100 1,161 Climbing Salt Lake Center
Sun 03:25:27 PM 43.8431 -113.8819 84° East 471 542 29,200 919 Climbing Salt Lake Center
Sun 03:26:29 PM 43.8556 -113.6789 85° East 475 547 30,000 672 Climbing Salt Lake Center
Sun 03:27:32 PM 43.8658 -113.5025 85° East 480 552 30,600 677 Climbing Salt Lake Center
Sun 03:28:33 PM 43.8778 -113.2917 85° East 490 564 31,400 774 Climbing Salt Lake Center
Sun 03:29:36 PM 43.8864 -113.1150 86° East 490 564 32,200 816 Climbing Salt Lake Center
Sun 03:30:38 PM 43.9000 -112.9014 85° East 490 564 33,100 823 Climbing Salt Lake Center
Sun 03:31:40 PM 43.9097 -112.7211 86° East 491 565 33,900 774 Climbing Salt Lake Center
Sun 03:32:42 PM 43.9186 -112.5408 86° East 490 564 34,700 677 Climbing Salt Lake Center
Sun 03:33:44 PM 43.9297 -112.3306 86° East 490 564 35,300 532 Climbing Salt Lake Center
Sun 03:34:46 PM 43.9386 -112.1492 86° East 494 568 35,800 484 Climbing Salt Lake Center
Sun 03:35:48 PM 43.9481 -111.9378 86° East 494 568 36,300 484 Climbing Salt Lake Center
Sun 03:36:50 PM 43.9564 -111.7564 86° East 495 570 36,800 339 Climbing Salt Lake Center
Sun 03:37:52 PM 43.9669 -111.5442 86° East 496 571 37,000 97 Climbing Salt Lake Center
Sun 03:38:54 PM 43.9739 -111.3575 87° East 506 582 37,000  Level Salt Lake Center
Sun 03:39:56 PM 43.9833 -111.1356 87° East 517 595 37,000  Level Salt Lake Center
Sun 03:40:58 PM 43.9703 -110.9450 95° East 519 597 37,000  Level Salt Lake Center
Sun 03:42:00 PM 43.9322 -110.7331 104° East 510 587 37,000  Level Salt Lake Center
Sun 03:43:02 PM 43.8925 -110.5603 108° East 498 573 37,000  Level Salt Lake Center
Sun 03:44:04 PM 43.8472 -110.3589 107° East 492 566 37,000  Level Salt Lake Center
Sun 03:45:06 PM 43.8103 -110.1875 107° East 487 560 37,000  Level Salt Lake Center
Sun 03:46:08 PM 43.7667 -109.9883 107° East 486 559 37,000  Level Salt Lake Center
Sun 03:47:10 PM 43.7267 -109.8194 108° East 483 556 37,000  Level Salt Lake Center
Sun 03:48:12 PM 43.6817 -109.6181 107° East 491 565 37,000  Level Salt Lake Center
Sun 03:49:14 PM 43.6831 -109.4292 89° East 508 585 37,000  Level Salt Lake Center
Sun 03:50:16 PM 43.6958 -109.2344 85° East 512 589 37,000  Level Salt Lake Center
Sun 03:51:18 PM 43.7139 -109.0411 83° East 512 589 37,000  Level Salt Lake Center
Sun 03:52:20 PM 43.7367 -108.8072 82° East 514 592 37,000  Level Salt Lake Center
Sun 03:53:23 PM 43.7539 -108.6133 83° East 511 588 37,000  Level Salt Lake Center
Sun 03:54:25 PM 43.7678 -108.4197 84° East 509 586 37,000  Level Salt Lake Center
Sun 03:55:27 PM 43.7736 -108.2231 88° East 513 590 37,000  Level Salt Lake Center
Sun 03:56:29 PM 43.7817 -108.0281 87° East 513 590 37,000  Level Salt Lake Center
Sun 03:57:31 PM 43.7897 -107.7947 87° East 510 587 37,000  Level Salt Lake Center
Sun 03:58:33 PM 43.7950 -107.6011 88° East 509 586 37,000  Level Salt Lake Center
Sun 03:59:35 PM 43.8003 -107.4081 88° East 506 582 37,000  Level Salt Lake Center
Sun 04:00:37 PM 43.8067 -107.2136 87° East 508 585 37,000  Level Salt Lake Center
Sun 04:01:38 PM 43.8106 -107.0197 88° East 509 586 37,000  Level Salt Lake Center
Sun 04:02:40 PM 43.8206 -106.8006 86° East 506 582 37,000  Level Denver Center
Sun 04:03:42 PM 43.8264 -106.6128 87° East 509 586 37,000  Level Denver Center
Sun 04:04:44 PM 43.8322 -106.3961 88° East 506 582 37,000  Level Denver Center
Sun 04:05:46 PM 43.8350 -106.2094 89° East 505 581 37,000  Level Denver Center
Sun 04:06:48 PM 43.8392 -105.9908 88° East 507 583 37,000  Level Denver Center
Sun 04:07:50 PM 43.8467 -105.7992 87° East 516 594 37,000  Level Denver Center
Sun 04:08:52 PM 43.8503 -105.5806 89° East 512 589 37,000  Level Denver Center
Sun 04:09:54 PM 43.8517 -105.3942 89° East 506 582 37,000  Level Denver Center
Sun 04:10:56 PM 43.8544 -105.1772 89° East 504 580 37,000  Level Denver Center
Sun 04:11:58 PM 43.8569 -104.9892 89° East 507 583 37,000  Level Denver Center
Sun 04:13:00 PM 43.8581 -104.8044 89° East 503 579 37,000  Level Denver Center
Sun 04:14:03 PM 43.8594 -104.5847 89° East 506 582 37,000  Level Denver Center
Sun 04:15:05 PM 43.8606 -104.3986 89° East 504 580 37,000  Level Denver Center
Sun 04:16:07 PM 43.8608 -104.1842 90° East 495 570 37,000  Level Denver Center
Sun 04:17:09 PM 43.8628 -103.9978 89° East 501 577 37,000  Level Denver Center
Sun 04:18:11 PM 43.8614 -103.7800 90° East 502 578 37,000  Level Denver Center
Sun 04:19:13 PM 43.8611 -103.5942 90° East 502 578 37,000  Level Denver Center
Sun 04:20:15 PM 43.8614 -103.3806 90° East 497 572 37,000  Level Denver Center
Sun 04:21:17 PM 43.8625 -103.1975 89° East 496 571 37,000  Level Denver Center
Sun 04:22:19 PM 43.8606 -102.9811 91° East 500 575 37,000  Level Denver Center
Sun 04:23:21 PM 43.8592 -102.7964 91° East 501 577 37,000  Level Denver Center
Sun 04:24:23 PM 43.8556 -102.6097 91° East 504 580 37,000  Level Denver Center
Sun 04:25:25 PM 43.8531 -102.3947 91° East 502 578 37,000  Level Denver Center
Sun 04:26:27 PM 43.8511 -102.2114 91° East 497 572 37,000  Level Denver Center
Sun 04:27:29 PM 43.8472 -101.9911 91° East 502 578 37,000  Level Denver Center
Sun 04:28:31 PM 43.8444 -101.8000 91° East 500 575 37,000  Level Denver Center
Sun 04:29:34 PM 43.8372 -101.6075 93° East 504 580 37,000  Level Denver Center
Sun 04:30:27 PM 43.8119 -101.4550 103° East 503 579 37,000  Level Minneapolis Center
Sun 04:31:29 PM 43.7714 -101.2333 104° East 499 574 37,000  Level Minneapolis Center
Sun 04:32:40 PM 43.7311 -101.0142 104° East 497 572 37,000  Level Denver Center
Sun 04:33:33 PM 43.7028 -100.8642 105° East 499 574 37,000  Level Minneapolis Center
Sun 04:34:36 PM 43.6700 -100.6839 104° East 495 570 37,000  Level Minneapolis Center
Sun 04:35:46 PM 43.6303 -100.4625 104° East 490 564 37,000  Level Denver Center
Sun 04:36:48 PM 43.5994 -100.2811 103° East 489 563 37,000  Level Denver Center
Sun 04:37:50 PM 43.5700 -100.1033 103° East 482 555 37,000  Level Denver Center
Sun 04:38:52 PM 43.5383 -99.8883 101° East 479 551 37,000  Level Denver Center
Sun 04:39:46 PM 43.5311 -99.7492 94° East 472 543 37,000  Level Minneapolis Center
Sun 04:40:48 PM 43.5219 -99.5717 94° East 467 537 37,000  Level Minneapolis Center
Sun 04:41:50 PM 43.5100 -99.3919 95° East 472 543 37,000  Level Minneapolis Center
Sun 04:42:52 PM 43.4981 -99.1725 94° East 480 552 37,000  Level Minneapolis Center
Sun 04:43:54 PM 43.5139 -98.9861 83° East 494 568 37,000  Level Minneapolis Center
Sun 04:44:56 PM 43.5275 -98.7961 84° East 498 573 37,000  Level Minneapolis Center
Sun 04:45:58 PM 43.5417 -98.5856 85° East 500 575 37,000  Level Minneapolis Center
Sun 04:47:00 PM 43.5553 -98.3975 84° East 496 571 37,000  Level Minneapolis Center
Sun 04:48:02 PM 43.5664 -98.2128 85° East 488 562 37,000  Level Minneapolis Center
Sun 04:49:05 PM 43.5817 -98.0300 83° East 485 558 37,000  Level Minneapolis Center
Sun 04:50:07 PM 43.6550 -97.8819 56° Northeast 470 541 37,000  Level Minneapolis Center
Sun 04:51:09 PM 43.7706 -97.8103 24° Northeast 455 524 37,000  Level Minneapolis Center
Sun 04:52:11 PM 43.9117 -97.7458 18° North 446 513 37,000  Level Minneapolis Center
Sun 04:53:13 PM 44.0300 -97.6953 17° North 444 511 37,000  Level Minneapolis Center
Sun 04:54:15 PM 44.1486 -97.6433 17° North 446 513 37,000  Level Minneapolis Center
Sun 04:55:17 PM 44.2650 -97.5786 22° Northeast 449 517 37,000  Level Minneapolis Center
Sun 04:56:19 PM 44.3539 -97.4411 48° Northeast 476 548 37,000  Level Minneapolis Center
Sun 04:57:21 PM 44.3917 -97.2558 74° East 497 572 37,000  Level Minneapolis Center
Sun 04:58:23 PM 44.3603 -97.0269 101° East 501 577 37,000  Level Minneapolis Center
Sun 04:59:25 PM 44.3228 -96.8378 105° East 505 581 37,000  Level Minneapolis Center
Sun 05:00:27 PM 44.2875 -96.6497 105° East 504 580 37,000  Level Minneapolis Center
Sun 05:01:30 PM 44.2494 -96.4606 106° East 506 582 37,000  Level Minneapolis Center
Sun 05:02:32 PM 44.2150 -96.2783 105° East 499 574 37,000  Level Minneapolis Center
Sun 05:03:34 PM 44.1706 -96.0631 106° East 513 590 37,000  Level Minneapolis Center
Sun 05:04:36 PM 44.1333 -95.8758 105° East 508 585 37,000  Level Minneapolis Center
Sun 05:05:38 PM 44.0956 -95.6894 106° East 504 580 37,000  Level Minneapolis Center
Sun 05:06:40 PM 44.0575 -95.5036 106° East 500 575 37,000  Level Minneapolis Center
Sun 05:07:42 PM 44.0103 -95.2819 106° East 500 575 37,000  Level Minneapolis Center
Sun 05:08:44 PM 43.9714 -95.0978 106° East 499 574 37,000  Level Minneapolis Center
Sun 05:09:46 PM 43.9328 -94.9144 106° East 498 573 37,000  Level Minneapolis Center
Sun 05:10:48 PM 43.8928 -94.7297 107° East 500 575 37,000  Level Minneapolis Center
Sun 05:11:50 PM 43.8522 -94.5439 107° East 503 579 37,000  Level Minneapolis Center
Sun 05:12:53 PM 43.8128 -94.3586 106° East 503 579 37,000  Level Minneapolis Center
Sun 05:13:55 PM 43.7700 -94.1672 107° East 503 579 37,000 -387 Level Minneapolis Center
Sun 05:14:57 PM 43.7217 -93.9453 107° East 505 581 36,200 -774 Descending Minneapolis Center
Sun 05:15:59 PM 43.6797 -93.7589 107° East 510 587 35,400 -774 Descending Minneapolis Center
Sun 05:17:01 PM 43.6367 -93.5711 108° East 515 593 34,600 -774 Descending Minneapolis Center
Sun 05:18:03 PM 43.5939 -93.3822 107° East 517 595 33,800 -677 Descending Minneapolis Center
Sun 05:19:05 PM 43.5508 -93.1953 108° East 518 596 33,200 -387 Descending Minneapolis Center
Sun 05:20:07 PM 43.4997 -92.9756 108° East 514 592 33,000 -97 Descending Minneapolis Center
Sun 05:21:09 PM 43.4578 -92.7992 108° East 504 580 33,000  Level Minneapolis Center
Sun 05:22:11 PM 43.4164 -92.6225 108° East 493 567 33,000  Level Minneapolis Center
Sun 05:23:13 PM 43.3750 -92.4444 108° East 492 566 33,000  Level Minneapolis Center
Sun 05:24:15 PM 43.3322 -92.2658 108° East 494 568 33,000 -48 Level Minneapolis Center
Sun 05:25:17 PM 43.2811 -92.0522 108° East 494 568 32,900 -581 Descending Minneapolis Center
Sun 05:26:19 PM 43.2389 -91.8731 108° East 496 571 31,800 -919 Descending Minneapolis Center
Sun 05:27:21 PM 43.1967 -91.6969 108° East 493 567 31,000 -387 Descending Minneapolis Center
Sun 05:28:23 PM 43.1425 -91.5303 114° Southeast 483 556 31,000  Level Minneapolis Center
Sun 05:29:25 PM 43.0847 -91.3644 115° Southeast 481 554 31,000  Level Minneapolis Center
Sun 05:30:27 PM 43.0253 -91.1997 116° Southeast 482 555 31,000  Level Minneapolis Center
Sun 05:31:29 PM 42.9678 -91.0336 115° Southeast 484 557 31,000 -532 Level Minneapolis Center
Sun 05:32:31 PM 42.8969 -90.8333 116° Southeast 488 562 29,900 -968 Descending Minneapolis Center
Sun 05:33:33 PM 42.8492 -90.7000 116° Southeast 491 565 29,000 -1,065 Descending Minneapolis Center
Sun 05:34:35 PM 42.7786 -90.5039 116° Southeast 486 559 27,700 -1,161 Descending Minneapolis Center
Sun 05:35:37 PM 42.7206 -90.3417 116° Southeast 483 556 26,600 -971 Descending Minneapolis Center
Sun 05:36:51 PM 42.6547 -90.1506 115° Southeast 478 550 25,500 -971 Descending Chicago Center
Sun 05:37:53 PM 42.5856 -89.9653 117° Southeast 464 534 24,400 -919 Descending Chicago Center
Sun 05:38:55 PM 42.5328 -89.8233 117° Southeast 454 522 23,600 -770 Descending Chicago Center
Sun 05:40:00 PM 42.5143 -89.6418 94° East  Level FlightAware Approximate
Sun 05:41:00 PM 42.4839 -89.4725 94° East 436 502 22,000  Level Chicago Center
Sun 05:42:02 PM 42.4664 -89.3114 98° East 435 501 21,300 -1,065 Descending Chicago Center
Sun 05:43:04 PM 42.4500 -89.1561 98° East 422 486 19,800 -1,452 Descending Chicago Center
Sun 05:44:06 PM 42.4322 -89.0042 99° East 412 474 18,300 -1,597 Descending Chicago Center
Sun 05:45:08 PM 42.4117 -88.8267 99° East 409 471 16,500 -2,371 Descending Chicago Center
Sun 05:46:10 PM 42.3947 -88.6764 99° East 404 465 13,400 -2,952 Descending Chicago Center
Sun 05:47:12 PM 42.3786 -88.5342 99° East 387 445 10,400 -1,645 Descending Chicago Center
Sun 05:48:14 PM 42.3461 -88.4078 109° East 355 409 10,000 -194 Descending Chicago Center
Sun 05:49:16 PM 42.2900 -88.3047 126° Southeast 357 411 10,000 -48 Level Chicago Center
Sun 05:50:18 PM 42.2128 -88.1764 129° Southeast 367 422 9,900 -384 Descending Chicago Center
Sun 05:51:21 PM 42.1547 -88.0992 135° Southeast 303 349 9,200 -1,238 Descending Chicago Center
Sun 05:52:24 PM 42.1000 -88.0167 132° Southeast 292 336 7,300 -1,073 Descending Chicago TRACON
Sun 05:53:24 PM 42.1000 -87.9167 90° East 279 321 7,000 -157 Descending Chicago TRACON
Sun 05:54:19 PM 42.1000 -87.8333 90° East 220 253 7,000 -417 Level Chicago TRACON
Sun 05:55:19 PM 42.1000 -87.7500 90° East 219 252 6,200 -1,050 Descending Chicago TRACON
Sun 05:56:19 PM 42.0667 -87.6833 124° Southeast 223 257 4,900 -1,400 Descending Chicago TRACON
Sun 05:57:19 PM 42.0333 -87.7000 200° South 193 222 3,400 -1,200 Descending Chicago TRACON
Sun 05:58:19 PM 42.0167 -87.7667 251° West 175 201 2,500 -900 Descending Chicago TRACON

Login

Don't have an account? Register now (free) for customized features, flight alerts, and more!